Time;durP1;ratioP1;P1;durP2;ratioP2;P2;SDS_P1;SDS_P2;PMS_P1;PMS_P2;Temp;Humidity;BMP_temperature;BMP_pressure;BME280_temperature;BME280_humidity;BME280_pressure;Samples;Min_cycle;Max_cycle;Signal;HPM_P1;HPM_P2
2022/07/26 00:01:52;;;;;;;6.75;3.42;;;;;;;23.21;43.03;99279.13;4263842;33;35652;-76
2022/07/26 00:04:38;;;;;;;8.43;3.12;;;;;;;23.30;43.16;99277.47;4259675;33;34961;-75
2022/07/26 00:07:24;;;;;;;8.57;3.62;;;;;;;23.44;43.46;99278.63;4252144;33;34930;-76
2022/07/26 00:10:11;;;;;;;7.35;3.25;;;;;;;22.84;45.05;99278.41;4268195;33;33424;-75
2022/07/26 00:12:58;;;;;;;9.52;3.28;;;;;;;23.25;43.65;99263.94;4263313;33;35528;-75
2022/07/26 00:15:45;;;;;;;5.93;3.40;;;;;;;23.34;42.07;99264.31;4262645;33;36092;-75
2022/07/26 00:18:32;;;;;;;7.47;4.20;;;;;;;23.38;43.34;99264.28;4250417;33;35170;-75
2022/07/26 00:21:18;;;;;;;7.57;3.72;;;;;;;23.26;43.84;99259.16;4257389;33;34205;-76
2022/07/26 00:24:05;;;;;;;6.75;3.25;;;;;;;23.23;43.13;99254.37;4267007;33;34750;-75
2022/07/26 00:26:51;;;;;;;13.40;3.78;;;;;;;23.05;43.95;99254.44;4257965;33;35983;-76
2022/07/26 00:29:38;;;;;;;6.80;3.28;;;;;;;22.89;44.09;99246.47;4259543;33;34804;-75
2022/07/26 00:32:24;;;;;;;5.55;2.90;;;;;;;22.65;44.20;99248.13;4266981;33;34256;-75
2022/07/26 00:35:11;;;;;;;9.38;3.42;;;;;;;22.56;43.66;99250.53;4264530;33;34648;-75
2022/07/26 00:37:57;;;;;;;6.03;3.53;;;;;;;22.73;42.44;99248.91;4253760;33;33799;-76
2022/07/26 00:40:43;;;;;;;6.85;3.60;;;;;;;22.24;45.40;99248.59;4260387;33;34262;-75
2022/07/26 00:43:30;;;;;;;7.80;3.35;;;;;;;22.19;46.28;99248.97;4268370;33;34792;-75
2022/07/26 00:46:16;;;;;;;8.50;3.40;;;;;;;22.51;45.35;99248.16;4259134;33;34345;-75
2022/07/26 00:49:03;;;;;;;6.28;3.08;;;;;;;22.20;45.91;99250.59;4261815;33;34718;-75
2022/07/26 00:51:49;;;;;;;6.30;3.55;;;;;;;22.58;44.93;99250.94;4267266;33;33978;-75
2022/07/26 00:54:36;;;;;;;7.70;3.45;;;;;;;22.93;44.15;99249.25;4264859;33;35194;-75
2022/07/26 00:57:23;;;;;;;5.28;2.85;;;;;;;22.70;45.04;99247.72;4258787;33;34661;-75
2022/07/26 01:00:12;;;;;;;4.68;3.20;;;;;;;22.18;45.87;99239.03;4256125;33;34573;-75
2022/07/26 01:02:59;;;;;;;6.35;3.12;;;;;;;22.60;45.14;99234.59;4252795;33;34692;-75
2022/07/26 01:05:47;;;;;;;6.40;3.20;;;;;;;22.62;43.80;99234.97;4264707;33;34330;-75
2022/07/26 01:08:33;;;;;;;5.62;3.22;;;;;;;22.38;44.67;99231.03;4258107;33;35620;-75
2022/07/26 01:11:19;;;;;;;6.93;3.55;;;;;;;22.05;45.39;99215.47;4258153;33;35644;-75
2022/07/26 01:14:06;;;;;;;7.03;3.65;;;;;;;22.25;45.53;99213.88;4260041;33;34660;-75
2022/07/26 01:16:53;;;;;;;5.53;3.42;;;;;;;22.15;46.58;99217.47;4256355;33;34998;-76
2022/07/26 01:19:39;;;;;;;5.45;3.40;;;;;;;21.24;49.29;99215.72;4261198;33;34649;-75
2022/07/26 01:22:26;;;;;;;9.55;3.20;;;;;;;22.17;47.53;99212.25;4256725;33;35084;-75
2022/07/26 01:25:12;;;;;;;10.48;3.60;;;;;;;21.98;47.81;99210.69;4262254;33;34672;-76
2022/07/26 01:27:58;;;;;;;4.85;3.20;;;;;;;22.05;47.24;99212.69;4262617;33;34196;-76
2022/07/26 01:30:44;;;;;;;6.07;3.37;;;;;;;21.96;47.61;99211.06;4266119;33;33215;-75
2022/07/26 01:33:31;;;;;;;7.00;3.10;;;;;;;21.96;47.12;99207.50;4259222;33;34548;-75
2022/07/26 01:36:17;;;;;;;6.25;3.08;;;;;;;22.06;46.90;99197.53;4258352;33;35541;-75
2022/07/26 01:39:04;;;;;;;5.72;3.20;;;;;;;21.98;48.21;99199.53;4264486;33;34076;-75
2022/07/26 01:41:50;;;;;;;5.03;3.47;;;;;;;21.62;48.61;99193.13;4262201;33;34696;-75
2022/07/26 01:44:37;;;;;;;5.85;3.33;;;;;;;21.98;47.15;99185.59;4260275;33;34987;-76
2022/07/26 01:47:23;;;;;;;5.93;3.28;;;;;;;21.34;49.33;99178.75;4259163;33;34721;-76
2022/07/26 01:50:10;;;;;;;4.25;3.00;;;;;;;21.66;47.93;99188.34;4259067;33;33771;-75
2022/07/26 01:52:56;;;;;;;5.82;3.25;;;;;;;21.67;47.57;99189.97;4259889;33;33610;-75
2022/07/26 01:55:42;;;;;;;4.75;2.75;;;;;;;21.66;47.90;99185.56;4261686;33;35179;-75
2022/07/26 01:58:29;;;;;;;4.75;3.10;;;;;;;20.74;51.43;99184.87;4268339;33;34848;-75
2022/07/26 02:01:15;;;;;;;7.53;3.80;;;;;;;21.15;50.21;99178.28;4265911;33;34425;-75
2022/07/26 02:07:28;;;;;;;4.97;3.00;;;;;;;21.60;49.14;99185.19;4269519;33;33272;-75
2022/07/26 02:10:16;;;;;;;5.03;3.35;;;;;;;21.53;48.57;99179.59;4253037;33;34614;-75
2022/07/26 02:13:02;;;;;;;6.47;3.53;;;;;;;21.76;48.29;99182.78;4264915;33;35199;-75
2022/07/26 02:15:52;;;;;;;4.87;3.53;;;;;;;21.34;49.12;99178.75;4255185;33;34553;-75
2022/07/26 02:18:39;;;;;;;6.60;3.30;;;;;;;20.88;51.29;99178.56;4260405;33;35061;-75
2022/07/26 02:21:26;;;;;;;5.60;3.00;;;;;;;20.15;54.23;99181.31;4255947;33;33281;-75
2022/07/26 02:24:12;;;;;;;5.00;3.10;;;;;;;21.18;50.77;99194.22;4262269;33;35188;-75
2022/07/26 02:26:59;;;;;;;5.05;3.40;;;;;;;20.79;52.15;99192.06;4261766;33;35250;-75
2022/07/26 02:29:46;;;;;;;6.32;3.03;;;;;;;20.76;51.56;99190.06;4258970;33;34973;-75
2022/07/26 02:32:32;;;;;;;5.43;3.20;;;;;;;20.83;50.25;99201.22;4264362;33;34746;-75
2022/07/26 02:35:18;;;;;;;6.28;3.12;;;;;;;20.70;50.09;99191.63;4259634;33;35135;-75
2022/07/26 02:38:07;;;;;;;6.90;3.00;;;;;;;21.06;49.32;99187.81;4263448;33;34715;-75
2022/07/26 02:40:55;;;;;;;4.82;2.70;;;;;;;21.24;48.40;99196.22;4252308;33;34900;-75
2022/07/26 02:43:41;;;;;;;6.68;3.50;;;;;;;20.94;48.80;99195.69;4262009;33;34459;-75
2022/07/26 02:46:27;;;;;;;7.00;3.60;;;;;;;20.37;50.58;99191.38;4259891;33;34202;-75
2022/07/26 02:49:14;;;;;;;4.65;2.87;;;;;;;20.82;49.41;99188.50;4259515;33;35148;-75
2022/07/26 02:52:00;;;;;;;9.45;3.42;;;;;;;21.29;48.32;99186.69;4260851;33;35581;-75
2022/07/26 02:54:46;;;;;;;7.35;3.17;;;;;;;21.52;47.60;99183.56;4263700;33;34612;-75
2022/07/26 02:57:33;;;;;;;8.07;2.97;;;;;;;21.65;46.46;99181.97;4264350;33;34282;-75
2022/07/26 03:00:31;;;;;;;5.95;3.00;;;;;;;21.65;45.59;99187.56;4260688;33;35528;-74
2022/07/26 03:03:17;;;;;;;7.03;3.87;;;;;;;21.50;46.28;99185.94;4262498;33;35995;-75
2022/07/26 03:06:04;;;;;;;4.45;2.92;;;;;;;21.34;47.58;99186.28;4263522;33;34652;-75
2022/07/26 03:08:50;;;;;;;6.85;3.60;;;;;;;21.17;48.97;99187.81;4263648;33;34232;-75
2022/07/26 03:11:36;;;;;;;9.27;3.53;;;;;;;21.18;50.04;99186.66;4260103;33;35671;-75
2022/07/26 03:14:22;;;;;;;6.05;3.10;;;;;;;21.21;50.20;99190.63;4259686;33;35897;-75
2022/07/26 03:17:09;;;;;;;5.35;3.03;;;;;;;21.30;50.01;99182.69;4258532;33;34608;-75
2022/07/26 03:19:55;;;;;;;7.05;3.12;;;;;;;21.09;49.55;99184.22;4258604;33;35104;-75
2022/07/26 03:22:42;;;;;;;5.97;3.17;;;;;;;21.02;49.90;99189.75;4259692;33;34620;-76
2022/07/26 03:25:28;;;;;;;6.60;3.17;;;;;;;21.26;49.11;99193.00;4262065;33;36042;-75
2022/07/26 03:28:15;;;;;;;6.47;3.15;;;;;;;21.31;49.72;99201.78;4265259;33;34767;-75
2022/07/26 03:31:04;;;;;;;5.20;3.40;;;;;;;21.49;50.32;99190.72;4261397;33;34226;-76
2022/07/26 03:33:51;;;;;;;5.72;3.28;;;;;;;21.53;50.33;99197.09;4262018;33;35085;-75
2022/07/26 03:36:37;;;;;;;5.75;3.80;;;;;;;21.53;50.42;99191.53;4259269;33;35999;-75
2022/07/26 03:39:24;;;;;;;6.07;3.20;;;;;;;21.13;51.22;99189.81;4260628;33;35533;-75
2022/07/26 03:42:10;;;;;;;6.70;3.60;;;;;;;21.18;51.20;99197.78;4266184;33;34210;-75
2022/07/26 03:44:56;;;;;;;5.85;3.35;;;;;;;21.21;51.67;99187.84;4267848;33;34535;-75
2022/07/26 03:47:45;;;;;;;6.35;3.20;;;;;;;21.16;51.68;99179.88;4263969;33;34983;-75
2022/07/26 03:50:31;;;;;;;6.57;3.28;;;;;;;21.29;51.19;99175.53;4261849;33;35992;-75
2022/07/26 03:53:18;;;;;;;6.20;3.60;;;;;;;21.23;51.05;99174.31;4257974;33;35227;-77
2022/07/26 03:59:10;;;;;;;8.13;4.05;;;;;;;21.46;49.89;99169.22;4259162;33;35694;-77
2022/07/26 04:01:56;;;;;;;6.85;3.92;;;;;;;21.49;48.79;99173.22;4254000;33;34480;-77
2022/07/26 04:04:42;;;;;;;5.87;3.58;;;;;;;21.28;49.38;99171.13;4259347;33;35042;-77
2022/07/26 04:07:31;;;;;;;7.45;3.40;;;;;;;21.42;48.30;99167.63;4264056;33;35546;-77
2022/07/26 04:10:17;;;;;;;6.90;3.65;;;;;;;20.93;50.36;99163.47;4256233;33;35026;-77
2022/07/26 04:13:03;;;;;;;6.18;3.58;;;;;;;20.85;50.21;99154.28;4252123;33;34616;-78
2022/07/26 04:15:50;;;;;;;6.53;3.45;;;;;;;21.07;50.00;99149.59;4251996;33;34689;-77
2022/07/26 04:18:37;;;;;;;7.82;3.42;;;;;;;21.31;50.26;99157.22;4261332;33;34327;-77
2022/07/26 04:21:23;;;;;;;6.07;3.40;;;;;;;21.01;48.68;99149.19;4262154;33;35005;-77
2022/07/26 04:24:10;;;;;;;8.27;4.15;;;;;;;20.37;50.63;99162.78;4248350;33;35107;-76
2022/07/26 04:26:57;;;;;;;7.65;3.60;;;;;;;21.13;49.17;99159.16;4257585;33;33859;-77
2022/07/26 04:29:43;;;;;;;6.72;3.62;;;;;;;21.27;48.53;99161.19;4257840;33;35644;-77
2022/07/26 04:32:29;;;;;;;7.90;3.22;;;;;;;21.81;47.15;99162.09;4257311;33;36047;-77
2022/07/26 04:35:16;;;;;;;8.43;4.40;;;;;;;20.66;50.90;99177.66;4255497;33;34622;-77
2022/07/26 04:38:03;;;;;;;8.20;4.55;;;;;;;19.89;54.94;99226.78;4242459;33;34084;-75
2022/07/26 04:40:50;;;;;;;7.28;4.75;;;;;;;19.79;52.40;99297.00;4254317;33;35534;-77
2022/07/26 04:43:37;;;;;;;10.52;4.53;;;;;;;20.20;50.77;99237.38;4248026;33;34940;-77
2022/07/26 04:46:23;;;;;;;7.60;4.30;;;;;;;20.72;49.90;99240.16;4263722;33;34534;-78
2022/07/26 04:49:10;;;;;;;11.45;4.18;;;;;;;20.94;48.48;99252.19;4266147;33;35360;-78
2022/07/26 04:51:58;;;;;;;11.45;4.07;;;;;;;21.47;47.07;99218.19;4263169;33;34754;-77
2022/07/26 04:54:44;;;;;;;9.98;4.07;;;;;;;21.37;47.26;99238.47;4250094;33;35031;-78
2022/07/26 04:57:31;;;;;;;9.60;4.35;;;;;;;22.30;45.78;99227.44;4261567;33;36335;-77
2022/07/26 05:00:22;;;;;;;10.43;4.37;;;;;;;21.53;47.38;99244.47;4258080;33;34797;-78
2022/07/26 05:03:09;;;;;;;;;;;;;;;22.25;45.06;99229.84;4257094;33;35146;-79
2022/07/26 05:05:55;;;;;;;10.15;4.07;;;;;;;22.04;46.43;99241.78;4242086;33;35388;-79
2022/07/26 05:08:42;;;;;;;13.98;4.15;;;;;;;22.54;44.61;99230.59;4256702;33;35597;-80
2022/07/26 05:11:28;;;;;;;11.93;5.03;;;;;;;23.28;43.83;99212.81;4255468;33;34185;-81
2022/07/26 05:14:14;;;;;;;13.38;4.35;;;;;;;22.67;43.77;99223.41;4256988;33;35697;-81
2022/07/26 05:17:01;;;;;;;12.57;4.37;;;;;;;22.83;44.11;99220.97;4255182;33;34474;-78
2022/07/26 05:19:55;;;;;;;11.25;4.80;;;;;;;22.29;44.96;99214.69;4254288;33;35062;-80
2022/07/26 05:22:48;;;;;;;9.57;4.43;;;;;;;22.35;45.27;99226.25;4249839;33;35041;-80
2022/07/26 05:25:35;;;;;;;11.27;4.75;;;;;;;22.57;44.62;99235.38;4263112;33;35703;-81
2022/07/26 05:28:22;;;;;;;8.32;4.57;;;;;;;22.51;44.08;99228.59;4257761;33;35977;-81
2022/07/26 05:31:08;;;;;;;12.70;4.57;;;;;;;23.04;42.99;99217.31;4250237;33;35511;-82
2022/07/26 05:33:54;;;;;;;8.38;3.92;;;;;;;23.08;43.51;99228.47;4255602;33;34285;-82
2022/07/26 05:36:40;;;;;;;10.95;4.53;;;;;;;23.10;43.06;99234.44;4249423;33;36325;-83
2022/07/26 05:39:27;;;;;;;9.98;4.95;;;;;;;23.04;43.47;99224.91;4255539;33;35090;-82
2022/07/26 05:42:13;;;;;;;8.82;4.55;;;;;;;23.22;43.27;99219.22;4251628;33;34912;-82
2022/07/26 05:44:59;;;;;;;7.80;4.50;;;;;;;23.53;42.82;99225.84;4245307;33;33898;-82
2022/07/26 05:47:51;;;;;;;8.63;5.00;;;;;;;24.03;41.95;99219.94;4254856;33;34144;-83
2022/07/26 05:50:37;;;;;;;10.45;4.80;;;;;;;23.81;42.81;99215.72;4251839;33;35057;-82
2022/07/26 05:53:24;;;;;;;7.60;4.62;;;;;;;24.30;42.79;99217.28;4244480;33;34539;-82
2022/07/26 05:56:10;;;;;;;10.80;5.20;;;;;;;24.38;43.42;99218.03;4255195;33;34235;-83
2022/07/26 05:58:57;;;;;;;9.23;5.32;;;;;;;24.55;44.99;99217.09;4259501;33;34328;-81
2022/07/26 06:01:43;;;;;;;10.65;5.80;;;;;;;24.35;46.32;99216.06;4260434;33;33867;-79
2022/07/26 06:04:29;;;;;;;10.85;4.90;;;;;;;24.55;46.28;99225.50;4256640;33;34735;-80
2022/07/26 06:07:16;;;;;;;10.52;5.70;;;;;;;24.61;46.61;99228.63;4252746;33;33664;-81
2022/07/26 06:10:03;;;;;;;12.48;5.53;;;;;;;24.78;46.71;99222.03;4243220;33;34600;-82
2022/07/26 06:12:50;;;;;;;11.30;5.97;;;;;;;25.11;46.72;99219.66;4253863;33;35538;-81
2022/07/26 06:15:37;;;;;;;13.75;5.90;;;;;;;25.45;47.58;99221.66;4256916;33;34380;-79
2022/07/26 06:18:23;;;;;;;12.90;7.30;;;;;;;25.33;50.11;99231.41;4252666;33;33720;-80
2022/07/26 06:21:10;;;;;;;13.93;6.95;;;;;;;25.48;51.53;99234.84;4246866;33;34342;-80
2022/07/26 06:23:56;;;;;;;11.77;7.10;;;;;;;25.38;52.53;99232.97;4263148;33;34607;-81
2022/07/26 06:26:42;;;;;;;14.18;7.53;;;;;;;25.31;53.30;99231.06;4240971;33;35172;-80
2022/07/26 06:29:28;;;;;;;13.38;7.55;;;;;;;25.22;54.20;99228.75;4254409;33;34385;-82
2022/07/26 06:32:18;;;;;;;14.75;7.10;;;;;;;25.38;54.19;99225.34;4256015;33;33604;-80
2022/07/26 06:35:04;;;;;;;15.07;7.40;;;;;;;25.54;53.83;99228.31;4246550;33;34604;-79
2022/07/26 06:37:51;;;;;;;9.77;7.05;;;;;;;25.78;53.26;99217.94;4260769;33;34332;-81
2022/07/26 06:40:37;;;;;;;12.98;6.90;;;;;;;25.56;53.91;99217.47;4257856;33;34360;-78
2022/07/26 06:43:24;;;;;;;13.02;7.43;;;;;;;25.40;54.39;99213.72;4259858;33;34761;-80
2022/07/26 06:46:11;;;;;;;11.35;6.50;;;;;;;25.52;54.05;99224.34;4253252;33;34467;-77
2022/07/26 06:48:58;;;;;;;14.98;7.45;;;;;;;25.65;53.68;99221.78;4257995;33;34607;-75
2022/07/26 06:51:44;;;;;;;11.60;6.85;;;;;;;25.33;54.25;99223.00;4253997;33;33056;-79
2022/07/26 06:54:30;;;;;;;12.70;6.72;;;;;;;25.47;53.89;99213.59;4264518;33;36310;-80
2022/07/26 06:57:17;;;;;;;15.27;7.28;;;;;;;25.87;52.94;99219.44;4264853;33;35948;-76
2022/07/26 07:00:06;;;;;;;11.65;6.70;;;;;;;25.37;54.45;99212.53;4263751;33;34206;-78
2022/07/26 07:02:51;;;;;;;13.23;6.70;;;;;;;25.57;54.21;99213.44;4251770;33;32675;-80
2022/07/26 07:05:38;;;;;;;15.32;7.07;;;;;;;25.95;52.95;99201.28;4257783;33;34545;-79
2022/07/26 07:08:25;;;;;;;13.00;6.82;;;;;;;25.87;53.70;99203.41;4252120;33;34853;-76
2022/07/26 07:11:11;;;;;;;10.15;6.43;;;;;;;25.92;52.96;99202.91;4257380;33;36117;-79
2022/07/26 07:14:01;;;;;;;9.35;6.75;;;;;;;25.84;53.69;99201.44;4258319;33;32926;-78
2022/07/26 07:16:48;;;;;;;14.65;6.90;;;;;;;26.41;52.52;99194.88;4252101;33;34751;-75
2022/07/26 07:19:35;;;;;;;14.05;6.70;;;;;;;26.29;51.90;99215.13;4250120;33;36440;-82
2022/07/26 07:22:22;;;;;;;14.60;6.70;;;;;;;26.18;52.36;99209.72;4240850;33;33457;-75
2022/07/26 07:25:08;;;;;;;14.75;6.35;;;;;;;26.34;51.87;99208.25;4250725;33;35063;-80
2022/07/26 07:28:00;;;;;;;13.10;6.50;;;;;;;26.56;50.82;99206.66;4256038;33;35068;-76
2022/07/26 07:30:46;;;;;;;13.88;6.87;;;;;;;26.74;50.67;99214.75;4242794;33;36423;-77
2022/07/26 07:33:33;;;;;;;9.98;6.75;;;;;;;27.10;50.16;99205.59;4233640;33;34319;-79
2022/07/26 07:36:37;;;;;;;12.27;6.50;;;;;;;26.75;50.01;99207.87;4252031;33;34276;-76
2022/07/26 07:39:24;;;;;;;11.65;6.53;;;;;;;26.54;51.52;99205.50;4252864;33;34904;-77
2022/07/26 07:42:21;;;;;;;9.20;5.82;;;;;;;26.87;50.25;99210.06;4253410;33;34323;-78
2022/07/26 07:45:08;;;;;;;13.23;6.80;;;;;;;26.72;50.83;99213.59;4252970;33;34668;-78
2022/07/26 07:47:54;;;;;;;10.88;5.95;;;;;;;27.19;49.75;99219.09;4252016;33;33836;-82
2022/07/26 07:50:40;;;;;;;13.32;6.25;;;;;;;27.03;49.78;99222.59;4250348;33;35380;-80
2022/07/26 07:53:26;;;;;;;10.85;6.35;;;;;;;27.40;48.78;99213.00;4252781;33;34643;-82
2022/07/26 07:56:16;;;;;;;11.25;6.45;;;;;;;27.20;49.23;99224.28;4251148;33;35005;-77
2022/07/26 07:59:03;;;;;;;8.15;6.20;;;;;;;26.45;51.79;99237.72;4254127;33;33781;-75
2022/07/26 08:01:49;;;;;;;11.23;5.68;;;;;;;25.78;53.82;99233.97;4254648;33;34698;-76
2022/07/26 08:04:36;;;;;;;9.02;6.03;;;;;;;26.03;53.30;99237.22;4247103;33;36164;-76
2022/07/26 08:07:22;;;;;;;7.60;5.57;;;;;;;26.37;52.97;99243.88;4254637;33;34652;-77
2022/07/26 08:10:20;;;;;;;11.15;6.12;;;;;;;26.07;53.87;99231.56;4256230;33;34173;-75
2022/07/26 08:13:06;;;;;;;12.18;5.85;;;;;;;26.24;54.14;99224.84;4252361;33;33692;-74
2022/07/26 08:15:55;;;;;;;10.10;5.90;;;;;;;26.40;53.34;99232.59;4250929;33;34597;-77
2022/07/26 08:18:44;;;;;;;10.48;5.72;;;;;;;26.05;54.47;99228.38;4252235;33;35437;-77
2022/07/26 08:21:44;;;;;;;7.93;5.60;;;;;;;26.32;53.69;99230.34;4252940;33;33974;-74
2022/07/26 08:24:32;;;;;;;10.35;5.65;;;;;;;26.35;53.75;99232.28;4257084;33;34296;-78
2022/07/26 08:27:18;;;;;;;10.15;5.60;;;;;;;26.33;53.41;99235.53;4255049;33;34954;-78
2022/07/26 08:30:05;;;;;;;9.57;5.43;;;;;;;25.88;54.80;99235.06;4258967;33;33520;-76
2022/07/26 08:32:51;;;;;;;8.95;5.07;;;;;;;26.14;54.12;99227.84;4255787;33;34407;-78
2022/07/26 08:35:37;;;;;;;13.20;6.43;;;;;;;26.58;53.50;99220.25;4257327;33;35501;-76
2022/07/26 08:38:24;;;;;;;10.13;5.57;;;;;;;26.62;52.94;99221.78;4252156;33;34956;-74
2022/07/26 08:41:10;;;;;;;10.00;6.00;;;;;;;26.69;52.87;99207.59;4251269;33;34608;-75
2022/07/26 08:44:05;;;;;;;9.70;5.72;;;;;;;27.20;51.36;99213.03;4247233;33;33710;-75
2022/07/26 08:46:51;;;;;;;7.70;5.32;;;;;;;26.58;53.11;99209.84;4250648;33;34640;-74
2022/07/26 08:49:38;;;;;;;10.10;5.57;;;;;;;26.73;52.67;99198.31;4253797;33;35092;-74
2022/07/26 08:52:24;;;;;;;7.62;5.30;;;;;;;27.42;50.58;99190.84;4247037;33;34583;-76
2022/07/26 08:55:15;;;;;;;10.75;6.00;;;;;;;27.49;50.31;99207.59;4255713;33;33980;-76
2022/07/26 08:58:02;;;;;;;7.30;5.25;;;;;;;27.56;50.37;99209.44;4259388;33;34638;-77
2022/07/26 09:01:08;;;;;;;9.35;6.07;;;;;;;27.72;49.56;99212.28;4264383;33;35095;-75
2022/07/26 09:03:54;;;;;;;11.70;6.05;;;;;;;28.14;47.83;99220.91;4240185;33;36845;-74
2022/07/26 09:06:55;;;;;;;9.48;5.47;;;;;;;28.05;47.09;99223.56;4252811;33;33006;-74
2022/07/26 09:10:06;;;;;;;10.02;6.20;;;;;;;27.77;48.43;99225.81;4254144;33;34481;-76
2022/07/26 09:12:56;;;;;;;10.38;7.25;;;;;;;26.98;50.73;99237.16;4250821;33;35998;-75
2022/07/26 09:15:43;;;;;;;9.00;5.60;;;;;;;27.04;49.43;99247.47;4254948;33;34068;-76
2022/07/26 10:03:52;;;;;;;17.73;7.35;;;;;;;22.18;91.95;99365.38;4527904;28;20480;-87
2022/07/26 10:06:40;;;;;;;14.85;6.50;;;;;;;21.68;100.00;99317.00;4230264;33;34383;-88
2022/07/26 10:09:33;;;;;;;11.30;6.75;;;;;;;22.20;100.00;99311.97;4243850;33;34566;-92
2022/07/26 10:12:20;;;;;;;13.57;7.25;;;;;;;22.08;100.00;99326.25;4241144;33;36101;-86
2022/07/26 10:15:45;;;;;;;12.40;7.78;;;;;;;21.52;100.00;99318.16;4242479;33;34242;-87
2022/07/26 10:18:35;;;;;;;14.75;8.63;;;;;;;21.37;100.00;99346.34;4242893;33;34295;-80
2022/07/26 10:21:28;;;;;;;15.15;7.78;;;;;;;21.08;100.00;99369.25;4243107;33;34729;-84
2022/07/26 10:24:25;;;;;;;;;;;;;;;21.17;100.00;99362.53;4241267;33;35994;-86
2022/07/26 10:27:40;;;;;;;14.20;8.43;;;;;;;21.21;100.00;99374.50;4242399;33;34543;-85
2022/07/26 10:30:27;;;;;;;13.60;8.70;;;;;;;21.03;100.00;99375.22;4237888;33;35052;-82
2022/07/26 10:33:22;;;;;;;11.88;8.63;;;;;;;20.85;100.00;99391.78;4232643;33;35250;-82
2022/07/26 10:36:41;;;;;;;12.50;8.25;;;;;;;20.79;100.00;99396.09;4241182;33;36032;-84
2022/07/26 10:39:27;;;;;;;15.32;8.35;;;;;;;21.54;100.00;99402.19;4239846;33;35750;-83
2022/07/26 10:42:14;;;;;;;13.75;9.18;;;;;;;21.33;100.00;99399.25;4231748;33;34079;-85
2022/07/26 10:45:17;;;;;;;11.30;8.05;;;;;;;21.04;100.00;99389.94;4242331;33;34720;-88
2022/07/26 10:48:11;;;;;;;12.98;9.00;;;;;;;21.29;100.00;99399.25;4240702;33;35062;-85
2022/07/26 10:50:57;;;;;;;12.55;8.70;;;;;;;21.33;100.00;99393.69;4243962;33;34724;-84
2022/07/26 10:53:59;;;;;;;12.48;7.87;;;;;;;21.29;100.00;99387.31;4244570;33;33804;-85
2022/07/26 10:56:45;;;;;;;12.18;8.98;;;;;;;21.35;100.00;99402.47;4235339;33;33236;-84
2022/07/26 10:59:32;;;;;;;12.07;8.50;;;;;;;21.40;100.00;99404.88;4245155;33;35619;-83
2022/07/26 11:02:38;;;;;;;12.15;8.82;;;;;;;21.54;100.00;99404.16;4246448;33;34665;-85
2022/07/26 11:05:30;;;;;;;11.77;8.60;;;;;;;21.65;100.00;99415.38;4231929;33;34726;-83
2022/07/26 11:08:16;;;;;;;;;;;;;;;21.37;100.00;99416.03;4243996;33;35574;-85
2022/07/26 11:11:03;;;;;;;12.15;7.68;;;;;;;21.79;100.00;99402.28;4241656;33;35327;-86
2022/07/26 11:13:49;;;;;;;11.23;7.28;;;;;;;22.00;100.00;99396.00;4242581;33;35354;-84
2022/07/26 11:16:40;;;;;;;11.75;8.13;;;;;;;22.11;100.00;99411.97;4243392;33;34197;-85
2022/07/26 11:19:28;;;;;;;12.85;7.30;;;;;;;21.84;100.00;99397.53;4242272;33;34278;-84
2022/07/26 11:22:14;;;;;;;10.45;7.10;;;;;;;22.26;100.00;99396.91;4243293;33;34743;-86
2022/07/26 11:25:01;;;;;;;11.30;6.90;;;;;;;21.86;100.00;99387.59;4243153;33;34654;-86
2022/07/26 11:28:01;;;;;;;11.70;7.40;;;;;;;22.43;100.00;99398.13;4225131;33;176145;-84
2022/07/26 11:30:59;;;;;;;11.30;6.68;;;;;;;22.17;100.00;99390.84;4242801;33;35232;-84
2022/07/26 11:33:49;;;;;;;9.70;7.45;;;;;;;22.21;100.00;99397.28;4241631;33;35050;-85
2022/07/26 11:36:38;;;;;;;11.40;7.30;;;;;;;22.01;100.00;99400.38;4232085;33;34842;-81
2022/07/26 11:39:30;;;;;;;11.88;7.78;;;;;;;22.14;100.00;99402.78;4242869;33;34095;-83
2022/07/26 11:42:18;;;;;;;11.48;7.70;;;;;;;22.31;100.00;99396.47;4231948;33;34226;-85
2022/07/26 11:45:08;;;;;;;11.68;7.82;;;;;;;22.62;100.00;99406.09;4241143;33;34953;-84
2022/07/26 11:47:57;;;;;;;10.38;7.53;;;;;;;22.71;100.00;99391.72;4242030;33;34595;-84
2022/07/26 11:50:45;;;;;;;11.55;7.18;;;;;;;22.63;100.00;99392.94;4242484;33;34420;-84
2022/07/26 11:53:36;;;;;;;10.80;8.15;;;;;;;22.89;100.00;99380.56;4243051;33;34703;-85
2022/07/26 11:56:22;;;;;;;10.68;8.05;;;;;;;22.60;100.00;99390.97;4242819;33;36083;-85
2022/07/26 11:59:12;;;;;;;11.60;8.05;;;;;;;22.32;100.00;99391.72;4242630;33;33010;-83
2022/07/26 12:01:59;;;;;;;10.27;8.23;;;;;;;22.18;100.00;99384.91;4229670;33;35092;-84
2022/07/26 12:04:46;;;;;;;11.88;7.62;;;;;;;22.16;100.00;99400.41;4241180;33;34225;-83
2022/07/26 12:07:32;;;;;;;11.25;8.30;;;;;;;22.86;100.00;99384.16;4242552;33;35068;-82
2022/07/26 12:10:18;;;;;;;13.57;8.43;;;;;;;22.50;100.00;99380.56;4232075;33;35544;-86
2022/07/26 12:13:14;;;;;;;12.63;8.00;;;;;;;22.51;100.00;99387.72;4242927;33;33209;-86
2022/07/26 12:16:01;;;;;;;11.70;8.40;;;;;;;22.43;100.00;99382.16;4231720;33;35077;-85
2022/07/26 12:18:50;;;;;;;11.48;8.13;;;;;;;22.87;100.00;99375.37;4240638;33;35063;-83
2022/07/26 12:21:38;;;;;;;12.27;8.27;;;;;;;22.82;100.00;99372.19;4242557;33;35613;-85
2022/07/26 12:24:50;;;;;;;11.82;7.45;;;;;;;22.44;100.00;99371.78;4231615;33;34173;-83
2022/07/26 12:27:44;;;;;;;11.25;7.75;;;;;;;22.98;99.82;99374.59;4242246;33;35705;-84
2022/07/26 12:30:34;;;;;;;9.57;7.28;;;;;;;22.78;99.54;99363.81;4238786;33;34677;-84
2022/07/26 12:33:20;;;;;;;10.38;7.40;;;;;;;22.84;99.04;99372.59;4241449;33;33692;-84
2022/07/26 12:36:18;;;;;;;9.35;7.15;;;;;;;22.49;100.00;99365.03;4240957;33;34451;-85
2022/07/26 12:39:21;;;;;;;9.95;6.35;;;;;;;22.11;100.00;99365.31;4242323;33;34754;-84
2022/07/26 12:42:34;;;;;;;9.60;6.70;;;;;;;22.70;99.11;99370.59;4231222;33;35650;-86
2022/07/26 12:45:23;;;;;;;10.07;7.37;;;;;;;22.55;99.53;99382.97;4229701;33;33462;-81
2022/07/26 12:48:10;;;;;;;11.68;7.65;;;;;;;21.88;100.00;99399.13;4240142;33;34211;-84
2022/07/26 12:50:57;;;;;;;11.82;7.47;;;;;;;22.23;100.00;99383.72;4240991;33;34666;-85
2022/07/26 12:53:43;;;;;;;10.45;7.30;;;;;;;22.27;100.00;99378.94;4241625;33;35988;-83
2022/07/26 12:56:30;;;;;;;11.12;7.35;;;;;;;22.84;99.10;99373.38;4241869;33;34663;-84
2022/07/26 12:59:16;;;;;;;11.48;7.80;;;;;;;23.05;97.60;99366.19;4239878;33;33750;-83
2022/07/26 13:02:03;;;;;;;11.10;8.02;;;;;;;23.25;97.74;99363.75;4239826;33;34708;-84
2022/07/26 13:04:50;;;;;;;10.60;7.43;;;;;;;23.57;93.85;99358.06;4240564;33;35016;-82
2022/07/26 13:07:41;;;;;;;10.70;7.40;;;;;;;23.60;94.76;99353.66;4230368;33;33416;-85
2022/07/26 13:10:28;;;;;;;11.32;8.27;;;;;;;23.56;93.62;99345.28;4240086;33;34189;-83
2022/07/26 13:13:19;;;;;;;11.73;8.00;;;;;;;23.87;91.98;99360.34;4239165;33;35665;-84
2022/07/26 13:16:05;;;;;;;10.18;7.25;;;;;;;24.52;87.86;99360.75;4240070;33;35919;-86
2022/07/26 13:18:57;;;;;;;;;;;;;;;24.14;85.72;99351.41;4240349;33;34395;-85
2022/07/26 13:21:43;;;;;;;9.38;6.87;;;;;;;25.41;79.57;99347.88;4239500;33;34041;-84
2022/07/26 13:24:37;;;;;;;8.60;6.37;;;;;;;24.70;82.65;99366.19;4241142;33;35604;-83
2022/07/26 13:27:23;;;;;;;9.27;6.55;;;;;;;24.78;80.73;99372.53;4239158;33;34957;-84
2022/07/26 13:30:10;;;;;;;10.18;6.62;;;;;;;24.91;81.08;99362.41;4239890;33;35286;-86
2022/07/26 13:32:56;;;;;;;9.88;6.40;;;;;;;24.88;79.46;99363.25;4241562;33;33984;-83
2022/07/26 13:35:43;;;;;;;9.68;6.60;;;;;;;25.03;77.13;99361.09;4240430;33;35646;-85
2022/07/26 13:38:32;;;;;;;9.85;6.47;;;;;;;24.61;79.83;99363.88;4241446;33;35677;-86
2022/07/26 13:41:18;;;;;;;8.80;6.15;;;;;;;24.39;79.42;99368.81;4240649;33;34653;-87
2022/07/26 13:44:05;;;;;;;9.30;6.20;;;;;;;24.72;75.33;99358.19;4240313;33;34762;-86
2022/07/26 13:46:51;;;;;;;9.90;6.50;;;;;;;24.96;75.07;99363.97;4240278;33;35377;-87
2022/07/26 13:49:37;;;;;;;8.57;6.90;;;;;;;24.86;75.44;99360.84;4237843;33;35060;-88
2022/07/26 13:52:24;;;;;;;9.60;6.18;;;;;;;25.01;76.41;99386.72;4243443;33;36653;-84
2022/07/26 13:55:10;;;;;;;9.55;6.05;;;;;;;24.72;78.14;99385.41;4231033;33;33706;-88
2022/07/26 13:57:56;;;;;;;9.65;6.22;;;;;;;24.96;78.16;99380.78;4243112;33;34743;-85
2022/07/26 14:00:43;;;;;;;9.18;6.55;;;;;;;24.50;80.32;99384.75;4221430;33;34899;-87